createdAt,value
2023-01-05T00:01:23.414Z,97416.78
2023-01-05T00:03:56.397Z,97417.81
2023-01-05T00:06:26.702Z,97419.47
2023-01-05T00:08:57.016Z,97414.88
2023-01-05T00:11:41.276Z,97400.69
2023-01-05T00:14:29.493Z,97401.25
2023-01-05T00:17:12.098Z,97410.53
2023-01-05T00:19:57.394Z,97409.00
2023-01-05T00:22:38.674Z,97422.34
2023-01-05T00:25:12.429Z,97413.22
2023-01-05T00:27:44.839Z,97403.94
2023-01-05T00:30:19.342Z,97402.03
2023-01-05T00:32:50.582Z,97414.16
2023-01-05T00:35:25.417Z,97405.84
2023-01-05T00:37:55.745Z,97405.56
2023-01-05T00:40:26.501Z,97407.84
2023-01-05T00:42:56.870Z,97414.44
2023-01-05T00:45:27.358Z,97411.75
2023-01-05T00:47:57.910Z,97413.34
2023-01-05T00:50:30.948Z,97407.81
2023-01-05T00:53:01.249Z,97419.66
2023-01-05T00:55:33.681Z,97417.66
2023-01-05T00:58:04.011Z,97413.94
2023-01-05T01:00:34.996Z,97413.03
2023-01-05T01:03:05.476Z,97415.25
2023-01-05T01:05:38.455Z,97421.09
2023-01-05T01:08:08.772Z,97424.31
2023-01-05T01:10:42.497Z,97422.59
2023-01-05T01:13:13.050Z,97417.34
2023-01-05T01:15:43.521Z,97417.91
2023-01-05T01:18:14.106Z,97423.44
2023-01-05T01:20:46.984Z,97421.25
2023-01-05T01:23:17.318Z,97423.31
2023-01-05T01:25:47.720Z,97407.00
2023-01-05T01:28:18.058Z,97412.41
2023-01-05T01:30:48.396Z,97409.34
2023-01-05T01:33:18.840Z,97416.63
2023-01-05T01:35:52.646Z,97410.41
2023-01-05T01:38:23.297Z,97407.50
2023-01-05T01:40:53.945Z,97405.22
2023-01-05T01:43:46.381Z,97421.16
2023-01-05T01:46:20.720Z,97403.28
2023-01-05T01:48:55.463Z,97406.41
2023-01-05T01:51:34.294Z,97407.44
2023-01-05T01:54:08.812Z,97402.53
2023-01-05T01:56:44.146Z,97403.81
2023-01-05T01:59:15.214Z,97398.78
2023-01-05T02:01:45.955Z,97398.59
2023-01-05T02:04:16.654Z,97385.28
2023-01-05T02:06:49.664Z,97381.56
2023-01-05T02:09:20.264Z,97388.69
2023-01-05T02:12:08.307Z,97373.66
2023-01-05T02:14:49.134Z,97371.84
2023-01-05T02:17:28.233Z,97379.38
2023-01-05T02:20:50.624Z,97375.44
2023-01-05T02:24:05.432Z,97375.44
2023-01-05T02:27:14.193Z,97370.16
2023-01-05T02:30:54.236Z,97363.88
2023-01-05T02:33:35.936Z,97364.19
2023-01-05T02:36:21.085Z,97374.84
2023-01-05T02:39:01.497Z,97365.97
2023-01-05T02:41:39.953Z,97361.19
2023-01-05T02:44:12.259Z,97354.91
2023-01-05T02:46:44.889Z,97349.81
2023-01-05T02:49:17.500Z,97349.34
2023-01-05T02:51:55.555Z,97359.19
2023-01-05T02:54:33.823Z,97352.66
2023-01-05T02:57:12.528Z,97359.19
2023-01-05T02:59:47.128Z,97368.03
2023-01-05T03:02:25.967Z,97357.19
2023-01-05T03:05:04.469Z,97367.22
2023-01-05T03:07:39.373Z,97357.59
2023-01-05T03:10:25.905Z,97368.00
2023-01-05T03:13:13.597Z,97370.28
2023-01-05T03:15:46.268Z,97371.09
2023-01-05T03:18:23.575Z,97378.94
2023-01-05T03:20:58.375Z,97372.63
2023-01-05T03:23:41.383Z,97379.72
2023-01-05T03:26:27.957Z,97378.72
2023-01-05T03:29:14.184Z,97378.72
2023-01-05T03:32:04.310Z,97376.75
2023-01-05T03:35:01.773Z,97380.41
2023-01-05T03:37:40.765Z,97372.56
2023-01-05T03:40:19.820Z,97375.91
2023-01-05T03:42:51.372Z,97381.59
2023-01-05T03:45:23.258Z,97384.84
2023-01-05T03:47:56.157Z,97381.44
2023-01-05T03:50:32.518Z,97379.63
2023-01-05T03:53:03.594Z,97363.00
2023-01-05T03:55:34.815Z,97379.44
2023-01-05T03:58:05.244Z,97387.91
2023-01-05T04:00:36.441Z,97368.34
2023-01-05T04:03:12.214Z,97378.09
2023-01-05T04:05:45.443Z,97382.69
2023-01-05T04:08:16.990Z,97375.38
2023-01-05T04:10:47.972Z,97379.69
2023-01-05T04:13:18.373Z,97389.75
2023-01-05T04:15:49.007Z,97390.72
2023-01-05T04:18:19.428Z,97400.00
2023-01-05T04:20:52.633Z,97398.41
2023-01-05T04:23:23.128Z,97401.44
2023-01-05T04:25:53.524Z,97397.47
2023-01-05T04:28:26.834Z,97393.78
2023-01-05T04:31:00.234Z,97406.34
2023-01-05T04:33:32.101Z,97417.72
2023-01-05T04:36:05.054Z,97410.59
2023-01-05T04:38:35.951Z,97415.06
2023-01-05T04:41:07.327Z,97427.41
2023-01-05T04:43:38.062Z,97430.88
2023-01-05T04:46:08.684Z,97416.72
2023-01-05T04:48:40.135Z,97404.66
2023-01-05T04:51:14.311Z,97445.69
2023-01-05T04:53:46.360Z,97419.66
2023-01-05T04:56:20.404Z,97417.91
2023-01-05T04:58:52.508Z,97437.47
2023-01-05T05:01:23.058Z,97441.03
2023-01-05T05:03:56.865Z,97443.50
2023-01-05T05:06:31.675Z,97441.28
2023-01-05T05:09:03.294Z,97436.97
2023-01-05T05:11:34.736Z,97442.03
2023-01-05T05:14:05.229Z,97454.81
2023-01-05T05:16:35.916Z,97456.13
2023-01-05T05:19:06.648Z,97469.06
2023-01-05T05:21:39.639Z,97464.22
2023-01-05T05:24:11.158Z,97458.91
2023-01-05T05:26:45.536Z,97459.84
2023-01-05T05:29:15.963Z,97474.00
2023-01-05T05:31:46.356Z,97466.66
2023-01-05T05:34:16.767Z,97465.22
2023-01-05T05:36:49.798Z,97475.72
2023-01-05T05:39:20.710Z,97473.94
2023-01-05T05:41:51.053Z,97491.63
2023-01-05T05:44:21.679Z,97476.22
2023-01-05T05:46:52.287Z,97477.59
2023-01-05T05:49:22.826Z,97481.91
2023-01-05T05:51:55.848Z,97490.13
2023-01-05T05:54:26.208Z,97500.28
2023-01-05T05:56:56.624Z,97491.66
2023-01-05T05:59:26.934Z,97502.56
2023-01-05T06:01:57.278Z,97495.28
2023-01-05T06:04:27.788Z,97487.09
2023-01-05T06:07:00.772Z,97500.00
2023-01-05T06:09:31.131Z,97495.56
2023-01-05T06:12:01.529Z,97489.03
2023-01-05T06:14:32.051Z,97500.50
2023-01-05T06:17:02.422Z,97496.91
2023-01-05T06:19:32.752Z,97498.81
2023-01-05T06:22:05.725Z,97505.22
2023-01-05T06:24:36.139Z,97502.44
2023-01-05T06:27:06.683Z,97504.44
2023-01-05T06:29:37.095Z,97511.41
2023-01-05T06:32:08.128Z,97512.66
2023-01-05T06:34:38.462Z,97508.81
2023-01-05T06:37:11.534Z,97512.75
2023-01-05T06:39:42.041Z,97521.66
2023-01-05T06:42:12.455Z,97516.97
2023-01-05T06:44:42.918Z,97538.09
2023-01-05T06:47:13.323Z,97527.97
2023-01-05T06:49:43.679Z,97537.59
2023-01-05T06:52:17.161Z,97528.19
2023-01-05T06:54:48.393Z,97540.09
2023-01-05T06:57:18.709Z,97533.41
2023-01-05T06:59:49.188Z,97549.56
2023-01-05T07:02:20.744Z,97550.41
2023-01-05T07:04:51.127Z,97559.19
2023-01-05T07:07:24.006Z,97554.72
2023-01-05T07:09:54.253Z,97554.34
2023-01-05T07:12:24.786Z,97570.41
2023-01-05T07:14:57.728Z,97576.41
2023-01-05T07:17:28.768Z,97584.81
2023-01-05T07:19:59.132Z,97574.66
2023-01-05T07:22:33.473Z,97589.78
2023-01-05T07:25:03.789Z,97590.72
2023-01-05T07:27:34.947Z,97591.28
2023-01-05T07:30:05.320Z,97603.53
2023-01-05T07:32:35.775Z,97597.97
2023-01-05T07:35:06.573Z,97593.50
2023-01-05T07:37:39.577Z,97594.81
2023-01-05T07:40:12.216Z,97614.22
2023-01-05T07:42:42.864Z,97610.09
2023-01-05T07:45:14.334Z,97619.84
2023-01-05T07:47:44.681Z,97613.44
2023-01-05T07:50:15.663Z,97622.91
2023-01-05T07:52:48.985Z,97619.75
2023-01-05T07:55:19.556Z,97621.75
2023-01-05T07:57:50.028Z,97612.22
2023-01-05T08:00:21.239Z,97615.34
2023-01-05T08:02:51.517Z,97614.13
2023-01-05T08:05:21.935Z,97615.75
2023-01-05T08:07:54.858Z,97634.00
2023-01-05T08:10:40.028Z,97627.97
2023-01-05T08:13:30.231Z,97635.44
2023-01-05T08:16:03.019Z,97631.69
2023-01-05T08:18:33.412Z,97636.38
2023-01-05T08:21:06.101Z,97644.88
2023-01-05T08:23:40.968Z,97651.28
2023-01-05T08:26:15.988Z,97648.03
2023-01-05T08:28:47.153Z,97644.88
2023-01-05T08:31:19.211Z,97658.16
2023-01-05T08:33:53.156Z,97663.28
2023-01-05T08:36:23.877Z,97662.91
2023-01-05T08:39:01.304Z,97669.53
2023-01-05T08:41:35.931Z,97670.19
2023-01-05T08:44:09.417Z,97679.19
2023-01-05T08:46:40.593Z,97676.09
2023-01-05T08:49:13.093Z,97676.50
2023-01-05T08:51:43.427Z,97675.91
2023-01-05T08:54:16.530Z,97686.03
2023-01-05T08:56:48.560Z,97685.28
2023-01-05T08:59:19.065Z,97675.50
2023-01-05T09:01:49.689Z,97701.28
2023-01-05T09:04:20.340Z,97689.63
2023-01-05T09:06:51.089Z,97693.84
2023-01-05T09:09:24.552Z,97690.31
2023-01-05T09:11:55.007Z,97690.31
2023-01-05T09:14:25.467Z,97696.00
2023-01-05T09:17:11.444Z,97685.88
2023-01-05T09:19:41.851Z,97693.16
2023-01-05T09:22:12.186Z,97692.91
2023-01-05T09:24:45.164Z,97700.97
2023-01-05T09:27:15.522Z,97694.47
2023-01-05T09:29:45.889Z,97706.13
2023-01-05T09:32:16.286Z,97708.03
2023-01-05T09:34:46.669Z,97712.56
2023-01-05T09:37:17.047Z,97712.09
2023-01-05T09:39:50.586Z,97712.34
2023-01-05T09:42:26.727Z,97716.50
2023-01-05T09:45:02.533Z,97713.22
2023-01-05T09:47:38.079Z,97714.66
2023-01-05T09:50:12.022Z,97710.91
2023-01-05T09:52:42.663Z,97716.84
2023-01-05T09:55:20.045Z,97716.47
2023-01-05T09:57:57.107Z,97719.06
2023-01-05T10:00:29.966Z,97714.66
2023-01-05T10:03:06.226Z,97704.63
2023-01-05T10:05:42.518Z,97715.22
2023-01-05T10:08:21.823Z,97735.22
2023-01-05T10:11:20.824Z,97721.28
2023-01-05T10:14:03.887Z,97706.25
2023-01-05T10:16:35.530Z,97724.41
2023-01-05T10:19:06.049Z,97726.31
2023-01-05T10:22:00.765Z,97729.00
2023-01-05T10:24:45.985Z,97716.84
2023-01-05T10:27:26.183Z,97729.38
2023-01-05T10:30:06.193Z,97716.00
2023-01-05T10:32:51.108Z,97734.84
2023-01-05T10:36:00.012Z,97731.38
2023-01-05T10:38:49.123Z,97735.75
2023-01-05T10:41:32.704Z,97735.38
2023-01-05T10:44:46.145Z,97731.56
2023-01-05T10:47:17.534Z,97740.72
2023-01-05T10:49:50.224Z,97725.72
2023-01-05T10:52:23.317Z,97755.19
2023-01-05T10:54:57.327Z,97740.28
2023-01-05T10:57:41.777Z,97735.75
2023-01-05T11:00:19.264Z,97752.31
2023-01-05T11:02:57.797Z,97725.81
2023-01-05T11:05:36.947Z,97732.91
2023-01-05T11:08:15.892Z,97739.69
2023-01-05T11:10:54.788Z,97741.91
2023-01-05T11:13:35.750Z,97736.84
2023-01-05T11:16:13.610Z,97749.75
2023-01-05T11:18:51.711Z,97743.59
2023-01-05T11:21:24.505Z,97759.88
2023-01-05T11:23:57.837Z,97756.63
2023-01-05T11:26:36.030Z,97772.69
2023-01-05T11:29:16.506Z,97775.06
2023-01-05T11:31:55.229Z,97768.00
2023-01-05T11:34:37.128Z,97778.50
2023-01-05T11:37:16.242Z,97767.44
2023-01-05T11:39:54.462Z,97773.84
2023-01-05T11:42:34.197Z,97784.16
2023-01-05T11:45:07.701Z,97778.38
2023-01-05T11:47:46.257Z,97770.13
2023-01-05T11:50:25.191Z,97789.16
2023-01-05T11:52:57.294Z,97778.91
2023-01-05T11:55:38.422Z,97785.09
2023-01-05T11:58:27.374Z,97787.00
2023-01-05T12:01:33.868Z,97794.72
2023-01-05T12:04:25.112Z,97798.13
2023-01-05T12:07:13.137Z,97779.69
2023-01-05T12:09:49.178Z,97797.06
2023-01-05T12:12:48.502Z,97783.34
2023-01-05T12:15:53.449Z,97790.13
2023-01-05T12:18:52.903Z,97801.78
2023-01-05T12:21:28.114Z,97800.66
2023-01-05T12:24:23.010Z,97790.44
2023-01-05T12:27:09.911Z,97779.06
2023-01-05T12:36:36.621Z,97802.63
2023-01-05T12:39:34.064Z,97782.25
2023-01-05T12:42:26.096Z,97791.63
2023-01-05T12:45:24.472Z,97798.97
2023-01-05T12:48:03.499Z,97796.69
2023-01-05T12:50:39.352Z,97822.31
2023-01-05T12:53:22.596Z,97820.47
2023-01-05T12:55:58.422Z,97822.19
2023-01-05T12:58:35.104Z,97827.16
2023-01-05T13:01:10.615Z,97822.44
2023-01-05T13:03:50.224Z,97827.16
2023-01-05T13:06:25.997Z,97819.91
2023-01-05T13:09:02.758Z,97836.81
2023-01-05T13:11:39.156Z,97821.53
2023-01-05T13:14:16.841Z,97819.53
2023-01-05T13:16:58.244Z,97819.47
2023-01-05T13:19:35.250Z,97821.84
2023-01-05T13:22:17.016Z,97823.16
2023-01-05T13:24:56.243Z,97820.50
2023-01-05T13:27:29.356Z,97830.47
2023-01-05T13:30:01.838Z,97826.25
2023-01-05T13:32:45.232Z,97833.13
2023-01-05T13:35:34.116Z,97839.63
2023-01-05T13:38:57.628Z,97843.44
2023-01-05T13:41:47.894Z,97842.69
2023-01-05T13:44:48.490Z,97843.28
2023-01-05T13:47:53.871Z,97845.47
2023-01-05T13:51:40.903Z,97843.47
2023-01-05T13:54:20.425Z,97832.00
2023-01-05T13:56:54.038Z,97826.16
2023-01-05T13:59:35.710Z,97861.03
2023-01-05T14:02:33.071Z,97856.22
2023-01-05T14:05:03.658Z,97865.78
2023-01-05T14:07:34.575Z,97875.09
2023-01-05T14:10:07.082Z,97886.16
2023-01-05T14:12:51.811Z,97894.41
2023-01-05T14:15:50.427Z,97876.41
2023-01-05T14:18:53.810Z,97896.56
2023-01-05T14:22:24.158Z,97881.03
2023-01-05T14:24:55.938Z,97908.91
2023-01-05T14:27:27.821Z,97917.88
2023-01-05T14:30:24.759Z,97904.22
2023-01-05T14:33:07.784Z,97926.56
2023-01-05T14:35:38.310Z,97933.81
2023-01-05T14:38:17.160Z,97941.25
2023-01-05T14:40:51.325Z,97950.47
2023-01-05T14:43:33.364Z,97947.00
2023-01-05T14:46:10.970Z,97941.47
2023-01-05T14:48:45.249Z,97960.97
2023-01-05T14:51:26.627Z,97944.53
2023-01-05T14:53:59.189Z,97959.63
2023-01-05T14:56:31.480Z,97971.38
2023-01-05T14:59:09.578Z,97969.81
2023-01-05T15:01:53.421Z,97969.69
2023-01-05T15:04:30.870Z,97978.13
2023-01-05T15:07:21.415Z,97982.91
2023-01-05T15:10:24.053Z,97975.38
2023-01-05T15:16:17.162Z,97984.03
2023-01-05T15:19:18.601Z,98003.88
2023-01-05T15:22:12.780Z,97998.22
2023-01-05T15:25:15.784Z,97995.78
2023-01-05T15:28:03.566Z,98005.63
2023-01-05T15:31:17.810Z,98007.00
2023-01-05T15:33:54.711Z,98017.16
2023-01-05T15:36:32.641Z,97996.72
2023-01-05T15:39:03.012Z,98008.72
2023-01-05T15:41:33.440Z,98008.88
2023-01-05T15:44:04.560Z,98022.88
2023-01-05T15:46:36.534Z,98026.28
2023-01-05T15:49:07.241Z,98015.19
2023-01-05T15:51:42.244Z,98024.72
2023-01-05T15:54:25.084Z,98026.28
2023-01-05T15:56:55.819Z,98034.84
2023-01-05T15:59:33.602Z,98036.09
2023-01-05T16:02:04.446Z,98030.25
2023-01-05T16:04:35.109Z,98047.50
2023-01-05T16:07:08.957Z,98040.25
2023-01-05T16:09:42.504Z,98048.09
2023-01-05T16:12:23.516Z,98048.41
2023-01-05T16:15:01.398Z,98055.03
2023-01-05T16:17:34.694Z,98051.16
2023-01-05T16:20:09.250Z,98055.31
2023-01-05T16:22:49.114Z,98056.72
2023-01-05T16:25:24.279Z,98060.25
2023-01-05T16:27:59.101Z,98065.00
2023-01-05T16:30:34.478Z,98061.47
2023-01-05T16:33:11.841Z,98077.59
2023-01-05T16:35:46.283Z,98073.47
2023-01-05T16:38:28.623Z,98082.06
2023-01-05T16:41:07.669Z,98083.47
2023-01-05T16:43:43.899Z,98084.38
2023-01-05T16:46:40.373Z,98074.41
2023-01-05T16:49:30.789Z,98089.91
2023-01-05T16:52:01.621Z,98095.16
2023-01-05T16:54:39.669Z,98089.00
2023-01-05T16:57:35.958Z,98100.06
2023-01-05T17:00:45.305Z,98104.19
2023-01-05T17:03:32.629Z,98086.53
2023-01-05T17:06:05.015Z,98083.78
2023-01-05T17:08:38.659Z,98103.13
2023-01-05T17:11:13.894Z,98114.19
2023-01-05T17:13:49.105Z,98121.56
2023-01-05T17:16:19.959Z,98122.19
2023-01-05T17:18:51.197Z,98107.13
2023-01-05T17:21:23.972Z,98106.97
2023-01-05T17:23:57.971Z,98116.81
2023-01-05T17:26:33.401Z,98116.03
2023-01-05T17:29:07.236Z,98108.66
2023-01-05T17:31:38.132Z,98115.56
2023-01-05T17:34:08.596Z,98125.09
2023-01-05T17:36:39.322Z,98125.84
2023-01-05T17:39:09.976Z,98120.66
2023-01-05T17:41:43.171Z,98132.03
2023-01-05T17:44:13.836Z,98132.63
2023-01-05T17:46:46.951Z,98128.63
2023-01-05T17:49:20.042Z,98144.94
2023-01-05T17:51:50.717Z,98140.34
2023-01-05T17:54:21.200Z,98143.69
2023-01-05T17:56:54.147Z,98142.78
2023-01-05T17:59:24.476Z,98150.16
2023-01-05T18:01:55.336Z,98149.41
2023-01-05T18:04:27.224Z,98158.44
2023-01-05T18:06:59.666Z,98159.81
2023-01-05T18:09:30.153Z,98162.31
2023-01-05T18:12:03.183Z,98156.94
2023-01-05T18:14:33.545Z,98158.75
2023-01-05T18:17:04.120Z,98167.06
2023-01-05T18:19:34.926Z,98167.19
2023-01-05T18:22:05.954Z,98156.28
2023-01-05T18:24:36.692Z,98177.47
2023-01-05T18:27:10.382Z,98171.50
2023-01-05T18:29:42.979Z,98181.00
2023-01-05T18:32:13.629Z,98183.00
2023-01-05T18:34:44.064Z,98185.16
2023-01-05T18:37:21.219Z,98179.19
2023-01-05T18:39:52.956Z,98186.09
2023-01-05T18:42:26.676Z,98178.25
2023-01-05T18:44:57.038Z,98182.84
2023-01-05T18:47:30.451Z,98186.22
2023-01-05T18:50:00.981Z,98181.75
2023-01-05T18:52:31.319Z,98193.38
2023-01-05T18:55:03.883Z,98193.38
2023-01-05T18:57:37.251Z,98193.03
2023-01-05T19:00:09.467Z,98193.38
2023-01-05T19:02:39.775Z,98201.25
2023-01-05T19:05:11.133Z,98200.03
2023-01-05T19:07:42.345Z,98203.56
2023-01-05T19:10:13.102Z,98204.09
2023-01-05T19:12:46.128Z,98199.81
2023-01-05T19:15:16.467Z,98194.59
2023-01-05T19:17:46.847Z,98194.94
2023-01-05T19:20:17.355Z,98193.53
2023-01-05T19:22:48.164Z,98197.84
2023-01-05T19:25:19.202Z,98199.66
2023-01-05T19:27:52.163Z,98205.81
2023-01-05T19:30:25.010Z,98208.84
2023-01-05T19:32:55.773Z,98206.84
2023-01-05T19:35:28.558Z,98209.47
2023-01-05T19:38:00.513Z,98208.56
2023-01-05T19:40:31.041Z,98208.56
2023-01-05T19:43:05.171Z,98217.13
2023-01-05T19:45:37.429Z,98210.03
2023-01-05T19:48:08.504Z,98219.69
2023-01-05T19:50:38.881Z,98224.44
2023-01-05T19:53:09.196Z,98230.09
2023-01-05T19:55:42.210Z,98229.03
2023-01-05T19:58:15.171Z,98230.84
2023-01-05T20:00:45.481Z,98233.00
2023-01-05T20:03:15.867Z,98225.47
2023-01-05T20:05:46.216Z,98231.78
2023-01-05T20:08:16.702Z,98226.25
2023-01-05T20:10:47.062Z,98228.09
2023-01-05T20:13:20.026Z,98227.03
2023-01-05T20:15:50.424Z,98223.16
2023-01-05T20:18:20.825Z,98221.63
2023-01-05T20:20:51.163Z,98232.56
2023-01-05T20:23:21.445Z,98223.16
2023-01-05T20:25:51.855Z,98222.28
2023-01-05T20:28:24.840Z,98226.56
2023-01-05T20:30:55.156Z,98234.22
2023-01-05T20:33:25.594Z,98229.31
2023-01-05T20:35:56.000Z,98247.25
2023-01-05T20:38:26.646Z,98250.94
2023-01-05T20:40:57.102Z,98251.13
2023-01-05T20:43:30.122Z,98247.03
2023-01-05T20:46:00.495Z,98252.56
2023-01-05T20:48:30.818Z,98251.94
2023-01-05T20:51:06.331Z,98256.84
2023-01-05T20:53:37.114Z,98254.97
2023-01-05T20:56:09.677Z,98264.16
2023-01-05T20:58:43.866Z,98257.72
2023-01-05T21:01:16.391Z,98253.53
2023-01-05T21:03:48.522Z,98257.34
2023-01-05T21:06:21.846Z,98257.34
2023-01-05T21:08:53.804Z,98253.38
2023-01-05T21:11:26.133Z,98253.22
2023-01-05T21:14:00.974Z,98258.50
2023-01-05T21:16:34.843Z,98272.66
2023-01-05T21:19:05.427Z,98269.28
2023-01-05T21:21:35.937Z,98278.69
2023-01-05T21:24:09.289Z,98283.56
2023-01-05T21:26:39.740Z,98286.31
2023-01-05T21:29:13.051Z,98286.50
2023-01-05T21:31:43.708Z,98289.59
2023-01-05T21:34:15.119Z,98281.50
2023-01-05T21:36:49.032Z,98279.94
2023-01-05T21:39:22.699Z,98285.47
2023-01-05T21:42:07.454Z,98287.97
2023-01-05T21:44:41.163Z,98288.41
2023-01-05T21:47:12.971Z,98282.44
2023-01-05T21:49:43.289Z,98282.13
2023-01-05T21:52:26.856Z,98286.09
2023-01-05T21:55:09.558Z,98279.69
2023-01-05T21:57:39.841Z,98283.94
2023-01-05T22:00:15.143Z,98280.97
2023-01-05T22:02:45.449Z,98278.28
2023-01-05T22:05:15.755Z,98276.31
2023-01-05T22:07:46.157Z,98274.19
2023-01-05T22:10:16.800Z,98279.84
2023-01-05T22:12:47.190Z,98281.06
2023-01-05T22:15:20.311Z,98283.88
2023-01-05T22:17:50.686Z,98288.19
2023-01-05T22:20:21.162Z,98283.44
2023-01-05T22:22:51.514Z,98291.22
2023-01-05T22:25:21.905Z,98287.81
2023-01-05T22:27:52.318Z,98285.56
2023-01-05T22:30:26.129Z,98283.38
2023-01-05T22:32:56.767Z,98280.19
2023-01-05T22:35:27.261Z,98279.72
2023-01-05T22:37:58.778Z,98282.63
2023-01-05T22:40:29.087Z,98292.56
2023-01-05T22:42:59.509Z,98286.97
2023-01-05T22:45:32.457Z,98286.34
2023-01-05T22:48:02.792Z,98278.06
2023-01-05T22:50:33.110Z,98289.22
2023-01-05T22:53:03.407Z,98279.53
2023-01-05T22:55:33.689Z,98288.25
2023-01-05T22:58:04.074Z,98289.94
2023-01-05T23:00:37.059Z,98291.00
2023-01-05T23:03:07.353Z,98290.16
2023-01-05T23:05:41.475Z,98289.06
2023-01-05T23:08:11.962Z,98289.06
2023-01-05T23:10:42.695Z,98278.78
2023-01-05T23:13:13.289Z,98293.16
2023-01-05T23:15:46.268Z,98289.66
2023-01-05T23:18:16.583Z,98291.88
2023-01-05T23:20:46.957Z,98292.63
2023-01-05T23:23:17.389Z,98286.59
2023-01-05T23:25:48.971Z,98291.34
2023-01-05T23:28:19.994Z,98285.41
2023-01-05T23:30:55.419Z,98292.31
2023-01-05T23:33:28.339Z,98291.13
2023-01-05T23:35:59.499Z,98288.06
2023-01-05T23:38:30.141Z,98281.56
2023-01-05T23:41:01.817Z,98280.56
2023-01-05T23:43:32.663Z,98288.84
2023-01-05T23:46:07.945Z,98284.97
2023-01-05T23:48:38.818Z,98285.66
2023-01-05T23:51:13.550Z,98289.06
2023-01-05T23:53:44.905Z,98281.78
2023-01-05T23:56:17.660Z,98278.91
2023-01-05T23:58:48.158Z,98270.66
